Time;durP1;ratioP1;P1;durP2;ratioP2;P2;SDS_P1;SDS_P2;PMS_P1;PMS_P2;Temp;Humidity;BMP_temperature;BMP_pressure;BME280_temperature;BME280_humidity;BME280_pressure;Samples;Min_cycle;Max_cycle;Signal;HPM_P1;HPM_P2
2023/05/04 00:00:01;;;;;;;13.13;7.82;;;;;;;10.88;73.18;102343.84;5001356;28;20811;-64
2023/05/04 00:02:28;;;;;;;13.05;8.02;;;;;;;10.82;75.66;102332.94;5000911;28;20069;-65
2023/05/04 00:04:54;;;;;;;10.73;7.47;;;;;;;10.81;75.73;102331.28;5004972;28;20076;-64
2023/05/04 00:07:21;;;;;;;13.25;7.63;;;;;;;10.81;76.13;102333.88;4999618;28;20062;-64
2023/05/04 00:09:48;;;;;;;10.35;6.32;;;;;;;10.84;74.94;102336.31;5007590;28;20621;-64
2023/05/04 00:12:15;;;;;;;11.38;7.13;;;;;;;10.80;75.28;102321.69;4999072;28;20060;-63
2023/05/04 00:14:42;;;;;;;10.57;7.45;;;;;;;10.78;76.46;102320.97;5008732;28;20050;-64
2023/05/04 00:17:09;;;;;;;11.18;7.32;;;;;;;10.77;76.94;102320.16;4994317;28;20054;-63
2023/05/04 00:19:36;;;;;;;11.88;7.68;;;;;;;10.73;76.77;102317.88;5004535;28;20178;-64
2023/05/04 00:22:02;;;;;;;10.95;7.70;;;;;;;10.74;76.58;102309.03;4984480;28;20590;-64
2023/05/04 00:24:29;;;;;;;12.73;8.10;;;;;;;10.67;78.76;102313.88;4999348;28;20048;-65
2023/05/04 00:26:55;;;;;;;9.32;7.30;;;;;;;10.55;78.17;102301.66;5006075;28;20161;-63
2023/05/04 00:29:22;;;;;;;11.25;7.40;;;;;;;10.63;77.69;102300.16;5000696;28;20061;-63
2023/05/04 00:31:48;;;;;;;12.13;8.43;;;;;;;10.62;79.09;102306.38;5008491;28;20237;-64
2023/05/04 00:34:15;;;;;;;12.10;7.00;;;;;;;10.62;77.60;102295.00;4996502;28;20049;-65
2023/05/04 00:36:42;;;;;;;12.45;7.90;;;;;;;10.53;80.16;102288.66;5004235;28;20093;-63
2023/05/04 00:39:08;;;;;;;9.95;6.53;;;;;;;10.56;76.89;102290.19;5003383;28;20053;-64
2023/05/04 00:41:35;;;;;;;11.77;7.43;;;;;;;10.50;79.12;102288.84;5001034;28;20053;-65
2023/05/04 00:44:03;;;;;;;14.75;8.50;;;;;;;10.47;80.74;102283.84;5007729;28;20046;-64
2023/05/04 00:46:31;;;;;;;12.00;7.50;;;;;;;10.48;80.14;102290.75;4996555;28;20195;-64
2023/05/04 00:48:58;;;;;;;9.82;7.25;;;;;;;10.42;82.23;102286.78;5004178;28;20054;-64
2023/05/04 00:51:25;;;;;;;11.82;7.13;;;;;;;10.39;80.24;102279.16;5000572;28;20128;-65
2023/05/04 00:53:53;;;;;;;10.98;8.18;;;;;;;10.34;83.30;102281.25;4996241;28;20042;-64
2023/05/04 00:56:25;;;;;;;9.57;6.00;;;;;;;10.32;80.82;102272.66;5008200;28;20046;-64
2023/05/04 00:58:53;;;;;;;14.60;7.30;;;;;;;10.26;82.75;102271.25;4996191;28;20048;-64
2023/05/04 01:01:21;;;;;;;8.13;5.83;;;;;;;10.24;81.74;102273.16;5000255;28;20054;-65
2023/05/04 01:03:52;;;;;;;12.75;7.80;;;;;;;10.24;84.58;102260.03;5001836;28;20049;-64
2023/05/04 01:06:43;;;;;;;11.98;7.20;;;;;;;10.20;82.89;102260.38;5005544;28;20057;-65
2023/05/04 01:09:23;;;;;;;12.50;7.38;;;;;;;10.13;84.26;102254.72;5002215;28;20760;-64
2023/05/04 01:12:26;;;;;;;9.05;7.13;;;;;;;10.05;85.54;102255.25;4997887;28;20502;-65
2023/05/04 01:14:55;;;;;;;11.57;7.25;;;;;;;10.10;83.68;102252.31;4997748;28;20070;-65
2023/05/04 01:17:21;;;;;;;;;;;;;;;10.05;85.35;102247.38;5008251;28;20115;-66
2023/05/04 01:19:49;;;;;;;10.35;6.32;;;;;;;10.01;84.03;102253.78;5007921;28;19932;-65
2023/05/04 01:22:16;;;;;;;;;;;;;;;9.99;83.97;102255.69;5000315;28;20087;-65
2023/05/04 01:24:42;;;;;;;;;;;;;;;10.00;85.65;102257.38;5009016;28;19925;-66
2023/05/04 01:27:14;;;;;;;;;;;;;;;10.00;85.17;102254.75;4996790;28;19991;-67
2023/05/04 01:29:55;;;;;;;;;;;;;;;10.01;83.97;102255.59;5004577;28;19926;-65
2023/05/04 01:32:23;;;;;;;;;;;;;;;9.99;85.51;102252.25;4996141;28;20464;-65
2023/05/04 01:34:49;;;;;;;;;;;;;;;10.04;80.83;102250.13;5005336;28;19933;-65
2023/05/04 01:37:15;;;;;;;;;;;;;;;10.00;84.98;102252.13;5007350;28;19936;-65
2023/05/04 01:39:42;;;;;;;;;;;;;;;9.99;85.02;102252.25;4996684;28;20567;-67
2023/05/04 01:42:08;;;;;;;;;;;;;;;9.92;85.78;102243.97;5003960;28;19925;-65
2023/05/04 01:44:35;;;;;;;;;;;;;;;9.88;86.47;102255.63;5000696;28;19925;-65
2023/05/04 01:47:01;;;;;;;;;;;;;;;9.88;84.74;102260.88;5008154;28;20036;-65
2023/05/04 01:49:27;;;;;;;;;;;;;;;9.86;86.35;102263.59;5001151;28;19925;-65
2023/05/04 01:51:54;;;;;;;;;;;;;;;9.80;86.35;102257.91;5008185;28;19979;-66
2023/05/04 01:54:21;;;;;;;;;;;;;;;9.78;86.32;102250.19;4997011;28;19937;-66
2023/05/04 01:56:47;;;;;;;;;;;;;;;9.74;87.47;102251.34;4996072;28;19921;-65
2023/05/04 01:59:14;;;;;;;;;;;;;;;9.73;86.55;102252.25;5006910;28;20613;-65
2023/05/04 02:01:41;;;;;;;;;;;;;;;9.74;86.60;102255.72;5000657;28;19930;-67
2023/05/04 02:04:07;;;;;;;;;;;;;;;9.71;86.73;102256.78;5007288;28;19980;-66
2023/05/04 02:06:34;;;;;;;;;;;;;;;9.64;88.50;102245.91;5006467;28;19925;-65
2023/05/04 02:09:01;;;;;;;;;;;;;;;9.74;85.20;102238.25;4987941;28;19948;-66
2023/05/04 02:11:28;;;;;;;;;;;;;;;9.77;85.63;102247.66;5006998;28;19952;-65
2023/05/04 02:13:54;;;;;;;;;;;;;;;9.78;83.27;102242.31;5000408;28;19921;-66
2023/05/04 02:16:20;;;;;;;;;;;;;;;9.76;86.97;102236.34;5005337;28;19940;-65
2023/05/04 02:18:47;;;;;;;;;;;;;;;9.74;86.04;102230.38;4997410;28;19925;-65
2023/05/04 02:21:13;;;;;;;;;;;;;;;9.68;87.19;102236.00;5001840;28;20329;-66
2023/05/04 02:23:40;;;;;;;;;;;;;;;9.69;86.23;102235.09;5007196;28;19925;-66
2023/05/04 02:26:06;;;;;;;;;;;;;;;9.62;87.69;102226.78;4999273;28;20386;-66
2023/05/04 02:28:32;;;;;;;;;;;;;;;9.56;89.14;102236.88;5007111;28;20397;-65
2023/05/04 02:30:59;;;;;;;;;;;;;;;9.53;88.79;102235.31;5001956;28;19932;-65
2023/05/04 02:33:25;;;;;;;;;;;;;;;9.50;89.18;102235.50;5002770;28;20264;-64
2023/05/04 02:35:52;;;;;;;;;;;;;;;9.52;87.74;102232.78;4989564;28;19926;-65
2023/05/04 02:38:18;;;;;;;;;;;;;;;9.48;89.43;102232.97;5003494;28;19925;-65
2023/05/04 02:40:44;;;;;;;;;;;;;;;9.46;89.25;102234.03;5007229;28;20298;-65
2023/05/04 02:43:11;;;;;;;;;;;;;;;9.41;89.06;102226.50;4999464;28;20104;-65
2023/05/04 02:45:37;;;;;;;;;;;;;;;9.41;88.27;102228.25;4999377;28;19932;-65
2023/05/04 02:48:04;;;;;;;;;;;;;;;9.45;88.37;102227.13;4995086;28;19925;-66
2023/05/04 02:50:30;;;;;;;;;;;;;;;9.41;89.80;102223.88;5001454;28;19922;-65
2023/05/04 02:52:56;;;;;;;;;;;;;;;9.36;89.42;102227.75;5006913;28;19925;-65
2023/05/04 02:55:23;;;;;;;;;;;;;;;9.38;89.55;102221.47;4999197;28;20354;-65
2023/05/04 02:57:49;;;;;;;;;;;;;;;9.37;88.34;102224.19;5006795;28;19925;-64
2023/05/04 03:00:16;;;;;;;;;;;;;;;9.36;90.68;102219.91;4996688;28;19929;-67
2023/05/04 03:02:42;;;;;;;;;;;;;;;9.35;88.52;102211.22;5002320;28;19933;-66
2023/05/04 03:05:09;;;;;;;;;;;;;;;9.30;90.11;102216.75;5000284;28;20318;-65
2023/05/04 03:07:35;;;;;;;;;;;;;;;9.28;90.83;102212.56;5002264;28;20554;-65
2023/05/04 03:10:02;;;;;;;;;;;;;;;9.24;90.87;102221.56;5006546;28;19971;-66
2023/05/04 03:12:28;;;;;;;;;;;;;;;9.24;90.55;102213.72;5000803;28;20408;-65
2023/05/04 03:14:55;;;;;;;;;;;;;;;9.20;91.64;102214.88;5003296;28;19925;-65
2023/05/04 03:17:22;;;;;;;;;;;;;;;9.19;89.34;102214.03;4995849;28;19925;-65
2023/05/04 03:19:48;;;;;;;;;;;;;;;9.20;91.21;102212.25;5006206;28;20256;-65
2023/05/04 03:22:14;;;;;;;;;;;;;;;9.15;89.85;102214.31;5000398;28;19930;-65
2023/05/04 03:24:41;;;;;;;;;;;;;;;9.12;90.29;102214.53;5006091;28;19941;-65
2023/05/04 03:27:07;;;;;;;;;;;;;;;9.08;91.99;102217.34;5000088;28;19925;-64
2023/05/04 03:29:34;;;;;;;;;;;;;;;9.02;93.28;102207.28;4993172;28;19948;-67
2023/05/04 03:32:00;;;;;;;;;;;;;;;9.00;91.06;102201.31;4995870;28;20486;-66
2023/05/04 03:34:27;;;;;;;;;;;;;;;9.03;91.73;102206.34;4997507;28;19925;-64
2023/05/04 03:36:53;;;;;;;;;;;;;;;9.03;92.49;102202.88;5005876;28;19925;-64
2023/05/04 03:39:20;;;;;;;;;;;;;;;9.02;91.16;102204.69;5003154;28;19980;-65
2023/05/04 03:41:46;;;;;;;;;;;;;;;9.02;93.64;102198.63;5000057;28;19936;-67
2023/05/04 03:44:12;;;;;;;;;;;;;;;9.00;92.16;102195.25;5000814;28;20020;-65
2023/05/04 03:46:38;;;;;;;;;;;;;;;8.92;94.06;102185.31;4999173;28;19940;-66
2023/05/04 03:49:05;;;;;;;;;;;;;;;8.95;93.22;102190.31;5005501;28;19922;-65
2023/05/04 03:51:31;;;;;;;;;;;;;;;8.91;94.09;102186.22;4999338;28;19925;-67
2023/05/04 03:53:57;;;;;;;;;;;;;;;8.83;95.06;102191.13;5004325;28;20111;-65
2023/05/04 03:56:24;;;;;;;;;;;;;;;8.86;92.45;102190.91;5000967;28;20349;-65
2023/05/04 03:58:51;;;;;;;;;;;;;;;8.81;94.63;102188.63;4996060;28;20015;-66
2023/05/04 04:01:17;;;;;;;;;;;;;;;8.81;94.01;102187.78;5006226;28;20374;-67
2023/05/04 04:03:43;;;;;;;;;;;;;;;8.78;94.10;102180.13;5000331;28;19929;-66
2023/05/04 04:06:12;;;;;;;;;;;;;;;8.77;95.68;102181.91;5006813;28;19976;-65
2023/05/04 04:08:38;;;;;;;;;;;;;;;8.76;93.31;102182.00;4996455;28;20287;-67
2023/05/04 04:11:04;;;;;;;;;;;;;;;8.70;96.65;102178.88;5000821;28;20282;-65
2023/05/04 04:13:31;;;;;;;;;;;;;;;8.69;95.95;102184.19;5003342;28;20304;-65
2023/05/04 04:15:57;;;;;;;;;;;;;;;8.62;97.30;102182.91;5001360;28;20416;-65
2023/05/04 04:18:23;;;;;;;;;;;;;;;8.58;96.67;102179.66;5002334;28;19944;-66
2023/05/04 04:20:50;;;;;;;;;;;;;;;8.58;96.98;102195.34;5001002;28;19926;-65
2023/05/04 04:23:20;;;;;;;;;;;;;;;8.59;96.87;102177.91;5009120;28;19952;-65
2023/05/04 04:25:46;;;;;;;;;;;;;;;8.62;96.82;102177.69;5012619;28;19909;-67
2023/05/04 04:28:13;;;;;;;;;;;;;;;8.63;97.19;102176.75;5015228;28;19963;-65
2023/05/04 04:30:40;;;;;;;;;;;;;;;8.59;96.34;102165.66;5009283;28;19979;-65
2023/05/04 04:33:07;;;;;;;;;;;;;;;8.59;98.94;102168.25;5002114;28;19936;-65
2023/05/04 04:35:33;;;;;;;;;;;;;;;8.58;99.41;102173.59;5008547;28;19960;-66
2023/05/04 04:38:00;;;;;;;;;;;;;;;8.60;98.05;102169.94;5000606;28;19921;-65
2023/05/04 04:40:29;;;;;;;;;;;;;;;8.59;100.00;102173.50;5002767;28;19972;-65
2023/05/04 04:42:55;;;;;;;;;;;;;;;8.57;99.68;102174.53;4998391;28;20429;-66
2023/05/04 04:45:22;;;;;;;;;;;;;;;8.61;100.00;102171.63;5007538;28;19925;-65
2023/05/04 04:47:48;;;;;;;;;;;;;;;8.63;100.00;102171.53;5010657;28;19925;-66
2023/05/04 04:50:15;;;;;;;;;;;;;;;8.64;100.00;102166.16;5001749;28;19921;-65
2023/05/04 04:52:41;;;;;;;;;;;;;;;8.69;99.54;102173.72;5006854;28;19932;-67
2023/05/04 04:55:08;;;;;;;;;;;;;;;8.69;99.86;102164.09;4996440;28;19959;-67
2023/05/04 04:57:34;;;;;;;;;;;;;;;8.77;100.00;102173.22;5001838;28;19976;-65
2023/05/04 05:00:00;;;;;;;;;;;;;;;8.73;100.00;102172.59;5009036;28;19932;-64
2023/05/04 05:02:27;;;;;;;;;;;;;;;8.82;96.54;102172.00;5002821;28;20543;-63
2023/05/04 05:04:54;;;;;;;;;;;;;;;8.88;96.75;102166.34;5006021;28;20183;-64
2023/05/04 05:07:20;;;;;;;;;;;;;;;8.96;96.28;102170.22;5003696;28;20021;-64
2023/05/04 05:09:46;;;;;;;;;;;;;;;8.97;96.76;102167.50;5002972;28;20584;-65
2023/05/04 05:12:13;;;;;;;;;;;;;;;9.03;96.81;102168.88;4997093;28;20298;-64
2023/05/04 05:14:39;;;;;;;;;;;;;;;9.10;94.89;102159.66;5007729;28;19925;-65
2023/05/04 05:17:05;;;;;;;;;;;;;;;9.09;98.80;102163.22;5009344;28;20314;-64
2023/05/04 05:19:36;;;;;;;;;;;;;;;9.08;97.38;102162.38;5002033;28;19929;-64
2023/05/04 05:22:03;;;;;;;;;;;;;;;9.12;97.64;102168.25;5006355;28;19926;-64
2023/05/04 05:24:29;;;;;;;;;;;;;;;9.14;98.49;102168.97;4994603;28;19925;-64
2023/05/04 05:26:57;;;;;;;;;;;;;;;9.13;98.25;102177.75;5007928;28;19932;-63
2023/05/04 05:29:23;;;;;;;;;;;;;;;9.15;96.74;102170.66;5001203;28;19932;-65
2023/05/04 05:31:50;;;;;;;;;;;;;;;9.15;98.55;102168.03;5007022;28;20349;-64
2023/05/04 05:34:16;;;;;;;;;;;;;;;9.16;97.30;102168.88;5009142;28;19929;-63
2023/05/04 05:36:43;;;;;;;;;;;;;;;9.23;94.61;102165.75;4997483;28;19929;-66
2023/05/04 05:39:10;;;;;;;;;;;;;;;9.21;94.56;102164.16;5005397;28;19926;-65
2023/05/04 05:41:36;;;;;;;;;;;;;;;9.28;93.06;102165.44;5002417;28;19972;-64
2023/05/04 05:44:03;;;;;;;;;;;;;;;9.30;94.13;102166.16;5009732;28;19921;-65
2023/05/04 05:46:29;;;;;;;;;;;;;;;9.34;93.77;102162.38;5003553;28;20016;-64
2023/05/04 05:48:55;;;;;;;;;;;;;;;9.34;92.00;102172.03;5008414;28;20008;-65
2023/05/04 05:51:22;;;;;;;;;;;;;;;9.38;90.75;102165.63;5004445;28;20493;-64
2023/05/04 05:53:48;;;;;;;;;;;;;;;9.39;93.07;102165.53;5006660;28;19925;-64
2023/05/04 05:56:14;;;;;;;;;;;;;;;9.46;89.92;102155.47;5015464;28;19988;-66
2023/05/04 05:58:42;;;;;;;;;;;;;;;9.52;91.46;102157.66;5004810;28;21346;-66
2023/05/04 06:01:08;;;;;;;;;;;;;;;9.53;91.15;102155.88;5008597;28;19971;-64
2023/05/04 06:03:34;;;;;;;;;;;;;;;9.55;91.00;102148.75;5002142;28;19926;-64
2023/05/04 06:06:01;;;;;;;;;;;;;;;9.58;90.41;102156.38;5004703;28;19931;-64
2023/05/04 06:08:27;;;;;;;;;;;;;;;9.63;89.48;102152.50;5005546;28;20425;-64
2023/05/04 06:10:55;;;;;;;;;;;;;;;9.71;89.25;102157.22;5002155;28;19932;-64
2023/05/04 06:13:21;;;;;;;;;;;;;;;9.76;88.45;102147.25;5008326;28;19983;-64
2023/05/04 06:15:53;;;;;;;;;;;;;;;9.81;88.87;102147.75;5002909;28;19934;-64
2023/05/04 06:18:20;;;;;;;;;;;;;;;9.87;89.33;102151.72;5003373;28;19925;-66
2023/05/04 06:20:46;;;;;;;;;;;;;;;9.98;88.15;102143.09;4996060;28;19932;-65
2023/05/04 06:23:14;;;;;;;;;;;;;;;10.06;87.11;102136.34;5004447;28;19988;-64
2023/05/04 06:25:40;;;;;;;;;;;;;;;10.09;86.63;102141.38;4995427;28;20016;-64
2023/05/04 06:28:06;;;;;;;;;;;;;;;10.09;85.37;102137.91;4996598;28;19925;-65
2023/05/04 06:30:33;;;;;;;;;;;;;;;10.15;86.68;102134.81;5005115;28;19925;-64
2023/05/04 06:32:59;;;;;;;;;;;;;;;10.18;87.37;102125.94;4997797;28;20341;-64
2023/05/04 06:35:25;;;;;;;;;;;;;;;10.23;86.51;102129.88;5000990;28;19925;-64
2023/05/04 06:37:52;;;;;;;;;;;;;;;10.25;86.79;102122.75;5006062;28;19925;-65
2023/05/04 06:40:18;;;;;;;;;;;;;;;10.37;86.04;102125.44;5000706;28;20010;-64
2023/05/04 06:42:45;;;;;;;;;;;;;;;10.41;87.05;102121.66;5007399;28;20386;-65
2023/05/04 06:45:11;;;;;;;;;;;;;;;10.52;86.40;102118.22;4998511;28;19925;-68
2023/05/04 06:47:37;;;;;;;;;;;;;;;10.59;85.32;102120.28;5002882;28;19929;-64
2023/05/04 06:50:08;;;;;;;;;;;;;;;10.71;85.90;102125.56;4996811;28;19933;-65
2023/05/04 06:52:37;;;;;;;;;;;;;;;10.75;84.27;102122.56;4996357;28;20080;-66
2023/05/04 06:55:04;;;;;;;;;;;;;;;10.83;85.67;102120.19;5001659;28;21140;-64
2023/05/04 06:57:30;;;;;;;;;;;;;;;10.93;84.86;102119.50;4999556;28;19943;-64
2023/05/04 06:59:57;;;;;;;;;;;;;;;11.00;85.28;102115.47;5004542;28;19925;-64
2023/05/04 07:02:23;;;;;;;;;;;;;;;11.10;83.47;102110.34;4992122;28;19932;-66
2023/05/04 07:04:51;;;;;;;;;;;;;;;11.18;81.61;102106.16;5000853;28;20382;-64
2023/05/04 07:07:18;;;;;;;;;;;;;;;11.20;83.43;102100.81;4997607;28;20051;-63
2023/05/04 07:09:46;;;;;;;;;;;;;;;11.30;81.82;102111.44;4999641;28;19926;-65
2023/05/04 07:12:13;;;;;;;;;;;;;;;11.35;82.41;102107.50;5004624;28;19931;-64
2023/05/04 07:14:39;;;;;;;;;;;;;;;11.30;82.12;102104.38;4997199;28;19941;-64
2023/05/04 07:17:08;;;;;;;;;;;;;;;11.36;82.40;102101.28;5000391;28;20111;-66
2023/05/04 07:19:35;;;;;;;;;;;;;;;11.44;83.00;102104.13;4997302;28;19921;-63
2023/05/04 07:22:01;;;;;;;;;;;;;;;11.49;81.47;102095.91;5006078;28;19935;-64
2023/05/04 07:24:33;;;;;;;;;;;;;;;11.52;81.20;102095.63;5006298;28;19964;-64
2023/05/04 07:26:59;;;;;;;;;;;;;;;11.68;82.12;102095.25;4999219;28;19921;-65
2023/05/04 07:29:26;;;;;;;;;;;;;;;11.73;82.74;102095.72;5001718;28;19928;-64
2023/05/04 07:31:52;;;;;;;;;;;;;;;11.81;81.05;102101.22;4991242;28;19926;-65
2023/05/04 07:34:19;;;;;;;;;;;;;;;11.84;80.94;102094.88;5004128;28;19933;-70
2023/05/04 07:36:50;;;;;;;;;;;;;;;11.95;79.95;102092.22;5000807;28;20402;-67
2023/05/04 07:39:17;;;;;;;;;;;;;;;11.99;80.77;102084.94;5005012;28;20397;-64
2023/05/04 07:41:43;;;;;;;;;;;;;;;12.06;82.75;102079.06;5003231;28;19932;-65
2023/05/04 07:44:10;;;;;;;;;;;;;;;12.15;83.49;102087.16;4996133;28;19921;-64
2023/05/04 07:46:37;;;;;;;;;;;;;;;12.20;82.65;102085.00;5001642;28;19925;-66
2023/05/04 07:49:04;;;;;;;;;;;;;;;12.25;81.55;102072.28;5000257;28;19921;-65
2023/05/04 07:51:30;;;;;;;;;;;;;;;12.26;80.33;102076.59;5004840;28;20664;-65
2023/05/04 07:53:56;;;;;;;;;;;;;;;12.33;78.58;102066.38;4999846;28;19948;-65
2023/05/04 07:56:23;;;;;;;;;;;;;;;12.41;78.18;102072.69;5004564;28;19925;-67
2023/05/04 07:58:49;;;;;;;;;;;;;;;12.56;77.93;102070.56;5001281;28;19921;-66
2023/05/04 08:01:15;;;;;;;;;;;;;;;12.68;76.36;102067.84;4994683;28;19977;-66
2023/05/04 08:03:43;;;;;;;;;;;;;;;12.73;78.98;102060.41;5005502;28;19931;-65
2023/05/04 08:06:09;;;;;;;;;;;;;;;12.88;78.24;102063.53;4999363;28;19925;-65
2023/05/04 08:08:35;;;;;;;;;;;;;;;12.98;78.66;102065.25;4993556;28;19929;-66
2023/05/04 08:11:02;;;;;;;;;;;;;;;13.02;76.38;102058.75;5005779;28;19931;-65
2023/05/04 08:13:45;;;;;;;;;;;;;;;13.15;73.91;102069.09;4993058;28;19931;-65
2023/05/04 08:16:12;;;;;;;;;;;;;;;13.37;76.93;102067.25;5003000;28;20339;-66
2023/05/04 08:18:38;;;;;;;;;;;;;;;13.64;74.10;102054.25;5000003;28;19926;-67
2023/05/04 08:21:04;;;;;;;;;;;;;;;13.98;76.40;102051.22;5008725;28;19921;-66
2023/05/04 08:23:31;;;;;;;;;;;;;;;14.31;74.58;102046.50;4995368;28;20415;-66
2023/05/04 08:26:00;;;;;;;;;;;;;;;14.49;70.10;102043.97;5004418;28;19952;-67
2023/05/04 08:28:26;;;;;;;;;;;;;;;14.68;69.70;102036.97;5003202;28;20016;-67
2023/05/04 08:30:53;;;;;;;;;;;;;;;14.86;68.22;102032.63;5004088;28;19949;-63
2023/05/04 08:33:19;;;;;;;;;;;;;;;15.12;67.73;102031.97;5008590;28;20285;-66
2023/05/04 08:35:45;;;;;;;;;;;;;;;15.35;65.93;102025.28;5001443;28;19931;-66
2023/05/04 08:38:12;;;;;;;;;;;;;;;15.63;64.77;102022.59;5003519;28;19939;-65
2023/05/04 08:40:45;;;;;;;;;;;;;;;15.79;65.37;102024.59;4999837;28;20544;-63
2023/05/04 08:43:12;;;;;;;;;;;;;;;15.94;65.06;102019.63;4998755;28;19925;-64
2023/05/04 08:45:39;;;;;;;;;;;;;;;16.18;63.61;102017.16;5007597;28;20457;-64
2023/05/04 08:48:06;;;;;;;;;;;;;;;16.36;61.10;102018.94;5001675;28;19965;-63
2023/05/04 08:50:33;;;;;;;;;;;;;;;16.46;59.88;102017.00;5008836;28;20050;-63
2023/05/04 08:53:01;;;;;;;;;;;;;;;16.66;60.15;102020.28;5002969;28;20306;-63
2023/05/04 08:55:30;;;;;;;;;;;;;;;16.80;59.74;102014.38;5002856;28;19976;-64
2023/05/04 08:57:58;;;;;;;;;;;;;;;16.95;59.21;102006.69;4981348;28;19948;-64
2023/05/04 09:00:25;;;;;;;;;;;;;;;17.14;58.92;102012.72;5006394;28;19944;-63
2023/05/04 09:02:52;;;;;;;;;;;;;;;17.24;58.71;102005.47;5007813;28;19932;-63
2023/05/04 09:05:18;;;;;;;;;;;;;;;17.39;58.31;102003.84;5000157;28;19921;-65
2023/05/04 09:07:47;;;;;;;;;;;;;;;17.52;58.15;102005.19;5007434;28;19943;-64
2023/05/04 09:10:13;;;;;;;;;;;;;;;17.70;56.47;102005.03;4995773;28;19972;-63
2023/05/04 09:12:40;;;;;;;;;;;;;;;17.88;55.83;102000.47;5004205;28;19932;-63
2023/05/04 09:15:16;;;;;;;;;;;;;;;17.98;55.69;102000.28;5009180;28;19931;-65
2023/05/04 09:17:54;;;;;;;;;;;;;;;18.11;56.09;101987.34;5007409;28;19929;-63
2023/05/04 09:20:22;;;;;;;;;;;;;;;18.19;54.60;101989.16;5007022;28;19984;-64
2023/05/04 09:23:07;;;;;;;;;;;;;;;18.25;54.10;101988.50;4995571;28;20720;-65
2023/05/04 09:25:45;;;;;;;;;;;;;;;18.34;54.85;101987.44;5001054;28;19921;-63
2023/05/04 09:28:11;;;;;;;;;;;;;;;18.35;54.55;101985.66;5001099;28;20596;-66
2023/05/04 09:30:37;;;;;;;;;;;;;;;18.50;55.31;101983.09;5008237;28;20013;-63
2023/05/04 09:33:04;;;;;;;;;;;;;;;18.65;54.44;101984.06;5000327;28;20282;-63
2023/05/04 09:35:30;;;;;;;;;;;;;;;18.79;54.94;101982.50;5006214;28;19921;-63
2023/05/04 09:37:59;;;;;;;;;;;;;;;18.85;54.51;101979.19;4999987;28;19925;-64
2023/05/04 09:40:29;;;;;;;;;;;;;;;18.87;54.62;101966.53;4996353;28;20012;-63
2023/05/04 09:42:55;;;;;;;;;;;;;;;18.95;53.88;101968.34;5007438;28;20386;-68
2023/05/04 09:45:22;;;;;;;;;;;;;;;19.10;54.09;101966.59;5000902;28;20415;-64
2023/05/04 09:47:51;;;;;;;;;;;;;;;19.29;53.59;101965.34;5007689;28;20335;-65
2023/05/04 09:50:21;;;;;;;;;;;;;;;19.44;53.97;101964.56;5002558;28;20349;-65
2023/05/04 09:52:48;;;;;;;;;;;;;;;19.67;54.11;101967.22;5004395;28;19922;-66
2023/05/04 09:55:15;;;;;;;;;;;;;;;19.88;53.17;101953.28;5001955;28;19922;-66
2023/05/04 09:57:43;;;;;;;;;;;;;;;20.02;52.15;101951.66;4996839;28;19939;-65
2023/05/04 10:00:11;;;;;;;;;;;;;;;20.20;51.78;101956.63;5008475;28;19956;-65
2023/05/04 10:02:37;;;;;;;;;;;;;;;20.34;51.26;101947.78;5001262;28;19937;-65
2023/05/04 10:05:08;;;;;;;;;;;;;;;20.47;50.97;101944.50;5007864;28;19921;-65
2023/05/04 10:07:35;;;;;;;;;;;;;;;20.59;51.10;101934.19;4996202;28;20019;-63
2023/05/04 10:10:02;;;;;;;;;;;;;;;20.66;50.37;101935.13;5005497;28;20680;-64
2023/05/04 10:12:28;;;;;;;;;;;;;;;20.78;51.65;101930.97;5006308;28;19925;-65
2023/05/04 10:14:55;;;;;;;;;;;;;;;20.96;49.25;101925.22;5001888;28;19968;-64
2023/05/04 10:17:22;;;;;;;;;;;;;;;21.14;49.70;101924.78;5007529;28;19930;-66
2023/05/04 10:19:58;;;;;;;;;;;;;;;21.34;49.98;101908.97;4999655;28;19929;-64
2023/05/04 10:22:36;;;;;;;;;;;;;;;21.67;48.87;101919.97;5000141;28;19925;-64
2023/05/04 10:25:23;;;;;;;;;;;;;;;21.81;47.81;101910.22;5000580;28;19932;-64
2023/05/04 10:27:59;;;;;;;;;;;;;;;21.89;48.50;101911.91;5005463;28;19936;-64
2023/05/04 10:30:25;;;;;;;;;;;;;;;22.19;48.74;101914.34;4998822;28;20632;-65
2023/05/04 10:32:56;;;;;;;;;;;;;;;22.32;47.13;101901.09;4994943;28;19925;-65
2023/05/04 10:35:23;;;;;;;;;;;;;;;22.48;46.69;101891.91;5001808;28;19933;-65
2023/05/04 10:37:53;;;;;;;;;;;;;;;22.67;46.36;101893.81;4997948;28;20347;-64
2023/05/04 10:40:36;;;;;;;;;;;;;;;22.71;45.30;101881.69;5002916;28;19929;-64
2023/05/04 10:43:03;;;;;;;;;;;;;;;22.77;46.47;101877.41;5000645;28;19929;-64
2023/05/04 10:45:42;;;;;;;;;;;;;;;22.93;45.86;101868.16;5006162;28;19929;-64
2023/05/04 10:48:09;;;;;;;;;;;;;;;22.99;45.36;101872.72;4996032;28;20008;-65
2023/05/04 10:50:42;;;;;;;;;;;;;;;23.13;44.88;101864.72;5001761;28;19928;-65
2023/05/04 10:53:10;;;;;;;;;;;;;;;23.29;44.19;101856.31;5006267;28;20008;-64
2023/05/04 10:55:42;;;;;;;;;;;;;;;23.45;44.52;101855.88;4999416;28;19969;-64
2023/05/04 10:58:10;;;;;;;;;;;;;;;23.51;43.29;101848.06;5001679;28;20012;-64
2023/05/04 11:00:37;;;;;;;;;;;;;;;23.66;43.62;101840.63;5000455;28;20016;-64
2023/05/04 11:03:04;;;;;;;;;;;;;;;23.78;43.87;101838.16;5001086;28;19925;-64
2023/05/04 11:05:41;;;;;;;;;;;;;;;23.90;42.93;101839.16;4995312;28;19925;-64
2023/05/04 11:08:21;;;;;;;;;;;;;;;24.03;42.64;101823.03;5005682;28;19927;-64
2023/05/04 11:10:48;;;;;;;;;;;;;;;24.24;42.75;101829.13;5002399;28;19936;-64
2023/05/04 11:13:15;;;;;;;;;;;;;;;24.27;41.08;101820.69;4997021;28;20486;-64
2023/05/04 11:15:46;;;;;;;;;;;;;;;24.55;43.42;101819.53;5005278;28;19921;-67
2023/05/04 11:18:12;;;;;;;;;;;;;;;24.56;41.82;101815.78;4993955;28;19935;-64
2023/05/04 11:20:39;;;;;;;;;;;;;;;24.79;41.01;101813.38;5002968;28;19929;-64
2023/05/04 11:23:09;;;;;;;;;;;;;;;24.86;41.76;101810.66;5000289;28;20353;-63
2023/05/04 11:25:36;;;;;;;;;;;;;;;25.00;41.81;101798.78;5003055;28;19976;-64
2023/05/04 11:28:03;;;;;;;;;;;;;;;25.20;41.13;101803.16;5004041;28;19964;-66
2023/05/04 11:30:33;;;;;;;;;;;;;;;25.37;40.87;101790.84;4996861;28;19928;-65
2023/05/04 11:33:10;;;;;;;;;;;;;;;25.53;39.61;101778.69;5000079;28;20019;-65
2023/05/04 11:35:37;;;;;;;;;;;;;;;25.56;39.25;101777.41;4996107;28;19932;-66
2023/05/04 11:38:03;;;;;;;;;;;;;;;25.79;39.71;101774.88;5003471;28;20367;-64
2023/05/04 11:40:29;;;;;;;;;;;;;;;25.79;39.99;101769.50;4998711;28;19936;-65
2023/05/04 11:42:56;;;;;;;;;;;;;;;25.84;38.87;101768.84;5003681;28;19931;-64
2023/05/04 11:45:24;;;;;;;;;;;;;;;25.78;39.79;101754.44;4998704;28;20305;-65
2023/05/04 11:47:51;;;;;;;;;;;;;;;25.80;39.50;101756.91;4992452;28;19928;-64
2023/05/04 11:50:19;;;;;;;;;;;;;;;26.00;41.33;101760.19;4995025;28;20438;-64
2023/05/04 11:52:46;;;;;;;;;;;;;;;26.22;39.85;101754.31;4994073;28;20278;-63
2023/05/04 11:55:23;;;;;;;;;;;;;;;26.15;37.94;101756.25;4998930;28;19960;-64
2023/05/04 11:57:56;;;;;;;;;;;;;;;26.31;38.53;101754.81;4999695;28;20956;-65
2023/05/04 12:00:39;;;;;;;;;;;;;;;26.33;37.96;101752.72;4998565;28;19925;-65
2023/05/04 12:03:16;;;;;;;;;;;;;;;26.43;39.27;101751.09;4998368;28;19921;-65
2023/05/04 12:05:46;;;;;;;;;;;;;;;26.50;39.93;101747.47;5003706;28;20574;-64
2023/05/04 12:08:26;;;;;;;;;;;;;;;26.50;38.67;101747.47;5004847;28;20838;-65
2023/05/04 12:11:08;;;;;;;;;;;;;;;26.57;37.92;101740.16;4999276;28;19948;-65
2023/05/04 12:13:35;;;;;;;;;;;;;;;26.79;38.21;101740.44;4995625;28;20819;-65
2023/05/04 12:16:14;;;;;;;;;;;;;;;26.99;37.38;101740.94;4992383;28;20385;-64
2023/05/04 12:18:41;;;;;;;;;;;;;;;27.13;38.17;101736.13;5004891;28;19932;-66
2023/05/04 12:21:09;;;;;;;;;;;;;;;27.20;38.02;101736.81;4998614;28;19926;-65
2023/05/04 12:23:35;;;;;;;;;;;;;;;27.32;37.83;101733.31;5002540;28;19921;-65
2023/05/04 12:26:02;;;;;;;;;;;;;;;27.35;37.09;101725.59;5004056;28;19925;-66
2023/05/04 12:28:28;;;;;;;;;;;;;;;27.21;36.53;101722.28;4995878;28;19932;-65
2023/05/04 12:30:55;;;;;;;;;;;;;;;27.35;36.12;101719.38;5000527;28;20451;-65
2023/05/04 12:33:23;;;;;;;;;;;;;;;27.55;37.15;101717.09;4997908;28;19945;-64